createdAt,value
2017-10-11T00:04:05.536Z,95991.06
2017-10-11T00:06:33.114Z,96000.13
2017-10-11T00:09:00.629Z,95996.41
2017-10-11T00:11:28.210Z,95984.79
2017-10-11T00:13:56.000Z,95988.17
2017-10-11T00:16:23.535Z,95996.03
2017-10-11T00:18:51.078Z,95990.30
2017-10-11T00:21:18.658Z,95994.31
2017-10-11T00:23:46.183Z,95993.86
2017-10-11T00:26:14.086Z,95993.53
2017-10-11T00:28:41.655Z,95995.21
2017-10-11T00:31:09.201Z,95986.23
2017-10-11T00:33:36.727Z,95995.30
2017-10-11T00:36:04.332Z,95987.82
2017-10-11T00:38:31.850Z,95990.85
2017-10-11T00:40:59.724Z,95985.27
2017-10-11T00:43:27.270Z,95992.19
2017-10-11T00:45:54.840Z,95985.93
2017-10-11T00:48:22.371Z,95994.27
2017-10-11T00:50:49.955Z,95989.02
2017-10-11T00:53:17.519Z,95982.58
2017-10-11T00:55:45.071Z,95989.12
2017-10-11T00:58:12.675Z,95989.83
2017-10-11T01:00:40.434Z,95991.17
2017-10-11T01:03:08.007Z,95985.28
2017-10-11T01:05:35.574Z,95988.08
2017-10-11T01:08:03.115Z,95992.20
2017-10-11T01:10:30.984Z,95984.42
2017-10-11T01:12:58.546Z,95985.91
2017-10-11T01:15:26.330Z,95980.68
2017-10-11T01:17:53.872Z,95981.80
2017-10-11T01:20:21.519Z,95981.08
2017-10-11T01:22:49.103Z,95990.06
2017-10-11T01:25:16.887Z,95987.84
2017-10-11T01:27:44.499Z,95996.55
2017-10-11T01:30:12.354Z,95998.93
2017-10-11T01:32:39.902Z,95999.41
2017-10-11T01:35:07.542Z,96000.83
2017-10-11T01:37:35.118Z,96001.38
2017-10-11T01:40:02.699Z,96001.30
2017-10-11T01:42:30.351Z,96004.95
2017-10-11T01:44:58.128Z,96001.48
2017-10-11T01:47:25.714Z,96004.48
2017-10-11T01:49:53.285Z,96004.63
2017-10-11T01:52:20.828Z,96006.30
2017-10-11T01:54:48.420Z,96015.27
2017-10-11T01:57:16.080Z,96015.02
2017-10-11T01:59:43.606Z,96021.83
2017-10-11T02:02:11.149Z,96024.59
2017-10-11T02:04:38.727Z,96026.16
2017-10-11T02:07:06.274Z,96024.75
2017-10-11T02:09:33.836Z,96022.77
2017-10-11T02:12:01.457Z,96020.29
2017-10-11T02:14:28.997Z,96032.77
2017-10-11T02:16:56.515Z,96028.69
2017-10-11T02:19:24.191Z,96040.25
2017-10-11T02:21:51.777Z,96038.23
2017-10-11T02:24:19.622Z,96041.37
2017-10-11T02:26:47.174Z,96043.69
2017-10-11T02:29:14.742Z,96049.81
2017-10-11T02:31:42.499Z,96057.45
2017-10-11T02:34:10.115Z,96050.57
2017-10-11T02:36:37.647Z,96052.27
2017-10-11T02:39:05.208Z,96051.30
2017-10-11T02:41:32.823Z,96048.00
2017-10-11T02:44:00.357Z,96055.29
2017-10-11T02:46:27.882Z,96051.23
2017-10-11T02:48:55.429Z,96051.03
2017-10-11T02:51:23.194Z,96045.09
2017-10-11T02:53:50.818Z,96045.58
2017-10-11T02:56:18.384Z,96047.92
2017-10-11T02:58:45.915Z,96048.06
2017-10-11T03:01:13.453Z,96049.31
2017-10-11T03:03:41.058Z,96051.48
2017-10-11T03:06:08.853Z,96049.97
2017-10-11T03:08:36.391Z,96051.05
2017-10-11T03:11:04.171Z,96057.64
2017-10-11T03:13:31.709Z,96064.88
2017-10-11T03:15:59.244Z,96055.80
2017-10-11T03:18:26.815Z,96057.89
2017-10-11T03:20:54.567Z,96056.95
2017-10-11T03:23:22.110Z,96061.10
2017-10-11T03:25:49.782Z,96057.27
2017-10-11T03:28:17.416Z,96049.53
2017-10-11T03:30:45.175Z,96052.48
2017-10-11T03:33:12.767Z,96054.44
2017-10-11T03:35:40.322Z,96058.12
2017-10-11T03:38:07.870Z,96056.05
2017-10-11T03:40:35.454Z,96054.25
2017-10-11T03:43:02.980Z,96056.37
2017-10-11T03:45:30.559Z,96055.55
2017-10-11T03:47:58.162Z,96060.13
2017-10-11T03:50:25.919Z,96060.52
2017-10-11T03:52:53.455Z,96062.02
2017-10-11T03:55:21.009Z,96058.86
2017-10-11T03:57:48.544Z,96069.33
2017-10-11T04:00:16.368Z,96060.26
2017-10-11T04:02:43.967Z,96063.97
2017-10-11T04:05:11.493Z,96058.09
2017-10-11T04:07:39.253Z,96066.25
2017-10-11T04:10:06.882Z,96064.94
2017-10-11T04:12:34.450Z,96069.82
2017-10-11T04:15:01.994Z,96065.64
2017-10-11T04:17:29.600Z,96064.96
2017-10-11T04:19:57.112Z,96082.41
2017-10-11T04:22:24.699Z,96076.05
2017-10-11T04:24:52.281Z,96081.98
2017-10-11T04:27:19.840Z,96081.13
2017-10-11T04:29:47.412Z,96089.74
2017-10-11T04:32:15.037Z,96091.52
2017-10-11T04:34:42.807Z,96086.76
2017-10-11T04:37:10.604Z,96089.25
2017-10-11T04:39:38.187Z,96094.65
2017-10-11T04:42:05.719Z,96093.19
2017-10-11T04:44:33.263Z,96096.72
2017-10-11T04:47:00.827Z,96101.63
2017-10-11T04:49:28.381Z,96096.33
2017-10-11T04:51:56.175Z,96097.88
2017-10-11T04:54:23.782Z,96105.19
2017-10-11T04:56:51.321Z,96113.73
2017-10-11T04:59:18.844Z,96109.55
2017-10-11T05:01:46.654Z,96118.00
2017-10-11T05:04:14.197Z,96113.94
2017-10-11T05:06:41.752Z,96117.00
2017-10-11T05:09:09.323Z,96126.17
2017-10-11T05:11:37.609Z,96125.38
2017-10-11T05:14:05.134Z,96122.49
2017-10-11T05:16:32.777Z,96119.48
2017-10-11T05:19:00.537Z,96116.17
2017-10-11T05:21:28.079Z,96114.42
2017-10-11T05:23:55.684Z,96118.50
2017-10-11T05:26:23.251Z,96125.88
2017-10-11T05:28:51.077Z,96127.52
2017-10-11T05:31:18.958Z,96131.63
2017-10-11T05:33:46.542Z,96134.91
2017-10-11T05:36:14.087Z,96132.61
2017-10-11T05:38:41.723Z,96143.42
2017-10-11T05:41:09.296Z,96144.52
2017-10-11T05:43:36.857Z,96149.92
2017-10-11T05:46:04.430Z,96152.52
2017-10-11T05:48:31.959Z,96150.95
2017-10-11T05:50:59.485Z,96156.47
2017-10-11T05:53:27.056Z,96152.74
2017-10-11T05:55:54.570Z,96157.64
2017-10-11T05:58:22.134Z,96156.26
2017-10-11T06:00:49.715Z,96153.41
2017-10-11T06:03:17.285Z,96153.20
2017-10-11T06:05:44.844Z,96158.45
2017-10-11T06:08:12.466Z,96163.16
2017-10-11T06:10:40.009Z,96159.05
2017-10-11T06:13:07.530Z,96170.82
2017-10-11T06:15:35.139Z,96166.33
2017-10-11T06:18:02.710Z,96162.66
2017-10-11T06:20:30.252Z,96166.65
2017-10-11T06:22:57.860Z,96166.83
2017-10-11T06:25:25.379Z,96170.11
2017-10-11T06:27:52.894Z,96177.89
2017-10-11T06:30:20.550Z,96174.71
2017-10-11T06:32:48.081Z,96177.39
2017-10-11T06:35:15.636Z,96179.80
2017-10-11T06:37:43.207Z,96181.80
2017-10-11T06:40:10.741Z,96176.53
2017-10-11T06:42:38.340Z,96178.84
2017-10-11T06:45:05.903Z,96187.56
2017-10-11T06:47:33.424Z,96181.71
2017-10-11T06:50:00.978Z,96183.41
2017-10-11T06:52:28.544Z,96183.02
2017-10-11T06:54:56.068Z,96180.16
2017-10-11T06:57:23.645Z,96188.58
2017-10-11T06:59:51.207Z,96185.12
2017-10-11T07:02:18.776Z,96187.28
2017-10-11T07:04:46.291Z,96194.23
2017-10-11T07:07:13.799Z,96191.02
2017-10-11T07:09:41.403Z,96194.91
2017-10-11T07:12:09.192Z,96191.85
2017-10-11T07:14:36.943Z,96193.33
2017-10-11T07:17:04.566Z,96199.92
2017-10-11T07:19:32.166Z,96202.44
2017-10-11T07:21:59.718Z,96203.20
2017-10-11T07:24:27.272Z,96202.03
2017-10-11T07:26:54.797Z,96199.81
2017-10-11T07:29:22.331Z,96205.14
2017-10-11T07:31:49.899Z,96203.42
2017-10-11T07:34:17.411Z,96206.39
2017-10-11T07:36:44.976Z,96201.95
2017-10-11T07:39:12.537Z,96199.60
2017-10-11T07:41:40.139Z,96200.55
2017-10-11T07:44:07.719Z,96203.95
2017-10-11T07:46:35.410Z,96203.08
2017-10-11T07:49:02.942Z,96202.41
2017-10-11T07:51:30.495Z,96200.91
2017-10-11T07:53:58.111Z,96197.27
2017-10-11T07:56:25.767Z,96199.52
2017-10-11T07:58:53.335Z,96192.74
2017-10-11T08:01:20.951Z,96191.03
2017-10-11T08:03:48.501Z,96200.33
2017-10-11T08:06:16.029Z,96189.15
2017-10-11T08:08:43.583Z,96196.63
2017-10-11T08:11:11.137Z,96193.86
2017-10-11T08:13:38.926Z,96206.78
2017-10-11T08:16:06.490Z,96196.92
2017-10-11T08:18:34.012Z,96189.37
2017-10-11T08:21:01.791Z,96193.84
2017-10-11T08:23:29.358Z,96192.45
2017-10-11T08:25:56.895Z,96186.17
2017-10-11T08:28:25.227Z,96192.95
2017-10-11T08:30:52.814Z,96185.38
2017-10-11T08:33:20.579Z,96186.19
2017-10-11T08:35:48.118Z,96184.13
2017-10-11T08:38:15.679Z,96179.50
2017-10-11T08:40:43.208Z,96178.17
2017-10-11T08:43:11.954Z,96181.08
2017-10-11T08:45:39.579Z,96169.55
2017-10-11T08:48:08.119Z,96176.19
2017-10-11T08:50:35.662Z,96173.70
2017-10-11T08:53:03.225Z,96177.42
2017-10-11T08:55:30.786Z,96178.05
2017-10-11T08:57:58.531Z,96175.05
2017-10-11T09:00:26.185Z,96170.86
2017-10-11T09:02:53.970Z,96166.75
2017-10-11T09:05:21.500Z,96171.14
2017-10-11T09:07:49.103Z,96163.98
2017-10-11T09:10:16.730Z,96161.23
2017-10-11T09:12:44.254Z,96162.27
2017-10-11T09:15:11.810Z,96162.52
2017-10-11T09:17:40.293Z,96153.47
2017-10-11T09:20:07.958Z,96157.81
2017-10-11T09:22:35.507Z,96156.19
2017-10-11T09:25:03.067Z,96158.41
2017-10-11T09:27:30.608Z,96158.67
2017-10-11T09:29:58.178Z,96153.02
2017-10-11T09:32:25.753Z,96152.44
2017-10-11T09:34:53.270Z,96156.23
2017-10-11T09:37:21.169Z,96158.48
2017-10-11T09:39:48.720Z,96153.83
2017-10-11T09:42:16.452Z,96149.35
2017-10-11T09:44:43.989Z,96149.03
2017-10-11T09:47:11.562Z,96145.08
2017-10-11T09:49:39.076Z,96137.58
2017-10-11T09:52:06.615Z,96144.64
2017-10-11T09:54:34.204Z,96138.77
2017-10-11T09:57:01.822Z,96135.13
2017-10-11T09:59:29.390Z,96133.19
2017-10-11T10:01:56.983Z,96129.87
2017-10-11T10:04:24.562Z,96125.04
2017-10-11T10:06:52.110Z,96127.29
2017-10-11T10:09:19.711Z,96123.22
2017-10-11T10:11:47.927Z,96116.13
2017-10-11T10:14:15.440Z,96115.92
2017-10-11T10:16:43.028Z,96120.09
2017-10-11T10:19:10.640Z,96113.31
2017-10-11T10:21:38.386Z,96109.41
2017-10-11T10:24:05.979Z,96103.55
2017-10-11T10:26:33.514Z,96104.72
2017-10-11T10:29:01.326Z,96104.77
2017-10-11T10:31:28.926Z,96097.48
2017-10-11T10:33:56.522Z,96096.88
2017-10-11T10:36:24.123Z,96091.56
2017-10-11T10:38:51.740Z,96101.03
2017-10-11T10:41:19.266Z,96089.17
2017-10-11T10:43:46.845Z,96071.45
2017-10-11T10:46:14.444Z,96074.94
2017-10-11T10:48:42.556Z,96077.45
2017-10-11T10:51:10.187Z,96066.08
2017-10-11T10:53:37.784Z,96067.01
2017-10-11T10:56:05.343Z,96069.29
2017-10-11T10:58:32.871Z,96065.80
2017-10-11T11:01:00.483Z,96056.30
2017-10-11T11:03:28.014Z,96054.19
2017-10-11T11:05:55.589Z,96051.83
2017-10-11T11:08:23.516Z,96052.63
2017-10-11T11:10:55.260Z,96042.88
2017-10-11T11:13:22.813Z,96043.03
2017-10-11T11:15:50.403Z,96037.13
2017-10-11T11:18:17.929Z,96031.03
2017-10-11T11:20:45.466Z,96037.01
2017-10-11T11:23:13.036Z,96030.77
2017-10-11T11:25:40.619Z,96035.63
2017-10-11T11:28:08.363Z,96037.00
2017-10-11T11:30:35.956Z,96032.47
2017-10-11T11:33:03.508Z,96025.06
2017-10-11T11:35:31.063Z,96014.12
2017-10-11T11:37:59.686Z,96022.90
2017-10-11T11:40:27.202Z,96019.11
2017-10-11T11:42:54.725Z,96018.86
2017-10-11T11:45:22.478Z,96008.61
2017-10-11T11:47:50.037Z,96014.50
2017-10-11T11:50:17.591Z,96008.77
2017-10-11T11:52:45.188Z,96006.47
2017-10-11T11:55:13.523Z,96008.67
2017-10-11T11:57:41.090Z,96009.27
2017-10-11T12:00:08.807Z,96009.33
2017-10-11T12:02:36.351Z,96001.90
2017-10-11T12:05:03.955Z,96002.41
2017-10-11T12:07:31.539Z,96004.59
2017-10-11T12:09:59.111Z,96001.14
2017-10-11T12:12:26.661Z,96006.02
2017-10-11T12:14:54.252Z,96003.11
2017-10-11T12:17:21.806Z,95997.61
2017-10-11T12:19:50.081Z,95993.91
2017-10-11T12:22:17.695Z,95985.48
2017-10-11T12:24:45.446Z,95993.13
2017-10-11T12:27:13.017Z,95992.91
2017-10-11T12:29:40.610Z,95983.72
2017-10-11T12:32:08.266Z,95981.84
2017-10-11T12:34:35.782Z,95988.56
2017-10-11T12:37:03.568Z,95990.25
2017-10-11T12:39:31.266Z,95989.70
2017-10-11T12:41:58.784Z,95994.91
2017-10-11T12:44:26.340Z,95992.44
2017-10-11T12:46:53.914Z,95981.05
2017-10-11T12:49:21.656Z,95981.10
2017-10-11T12:51:49.227Z,95979.47
2017-10-11T12:54:16.820Z,95971.08
2017-10-11T12:56:44.598Z,95968.27
2017-10-11T12:59:12.135Z,95963.43
2017-10-11T13:01:39.717Z,95969.20
2017-10-11T13:04:07.502Z,95965.23
2017-10-11T13:06:35.051Z,95954.66
2017-10-11T13:09:02.600Z,95954.47
2017-10-11T13:11:30.114Z,95951.05
2017-10-11T13:13:57.908Z,95949.25
2017-10-11T13:16:25.465Z,95952.68
2017-10-11T13:18:53.011Z,95951.60
2017-10-11T13:21:20.772Z,95954.57
2017-10-11T13:23:48.382Z,95950.49
2017-10-11T13:26:16.336Z,95947.38
2017-10-11T13:28:43.921Z,95949.63
2017-10-11T13:31:11.504Z,95952.02
2017-10-11T13:33:39.041Z,95947.67
2017-10-11T13:36:06.594Z,95942.58
2017-10-11T13:38:34.182Z,95942.59
2017-10-11T13:41:01.715Z,95948.52
2017-10-11T13:43:29.280Z,95944.43
2017-10-11T13:45:56.871Z,95944.84
2017-10-11T13:48:24.387Z,95947.97
2017-10-11T13:50:52.239Z,95956.84
2017-10-11T13:53:19.791Z,95955.83
2017-10-11T13:55:47.298Z,95950.73
2017-10-11T13:58:14.843Z,95951.08
2017-10-11T14:00:42.395Z,95953.63
2017-10-11T14:03:09.936Z,95955.02
2017-10-11T14:05:37.677Z,95954.61
2017-10-11T14:08:05.446Z,95948.09
2017-10-11T14:10:32.964Z,95952.05
2017-10-11T14:13:00.745Z,95950.08
2017-10-11T14:15:28.511Z,95948.30
2017-10-11T14:17:56.357Z,95941.50
2017-10-11T14:20:23.905Z,95949.23
2017-10-11T14:22:51.509Z,95952.75
2017-10-11T14:25:19.059Z,95948.95
2017-10-11T14:27:46.570Z,95949.73
2017-10-11T14:30:14.287Z,95949.34
2017-10-11T14:32:41.815Z,95955.26
2017-10-11T14:35:09.428Z,95958.56
2017-10-11T14:37:37.108Z,95956.24
2017-10-11T14:40:04.863Z,95954.94
2017-10-11T14:42:32.463Z,95963.60
2017-10-11T14:45:00.082Z,95955.95
2017-10-11T14:47:27.722Z,95955.52
2017-10-11T14:49:55.278Z,95958.23
2017-10-11T14:52:22.882Z,95955.45
2017-10-11T14:54:50.404Z,95961.87
2017-10-11T14:57:17.931Z,95963.86
2017-10-11T14:59:45.550Z,95969.13
2017-10-11T15:02:13.095Z,95963.60
2017-10-11T15:04:40.602Z,95967.67
2017-10-11T15:07:08.157Z,95965.25
2017-10-11T15:09:35.729Z,95961.05
2017-10-11T15:12:03.269Z,95964.73
2017-10-11T15:14:30.826Z,95969.46
2017-10-11T15:16:58.746Z,95966.09
2017-10-11T15:19:26.267Z,95969.58
2017-10-11T15:21:54.092Z,95974.83
2017-10-11T15:24:21.686Z,95975.72
2017-10-11T15:26:49.232Z,95975.70
2017-10-11T15:29:16.824Z,95976.97
2017-10-11T15:31:44.414Z,95983.41
2017-10-11T15:34:11.924Z,95979.69
2017-10-11T15:36:39.749Z,95981.59
2017-10-11T15:39:07.377Z,95982.88
2017-10-11T15:41:35.042Z,95991.27
2017-10-11T15:44:03.478Z,95983.45
2017-10-11T15:46:31.091Z,95986.51
2017-10-11T15:49:00.119Z,95994.09
2017-10-11T15:51:27.743Z,95995.45
2017-10-11T15:53:55.334Z,95994.49
2017-10-11T15:56:23.442Z,95998.47
2017-10-11T15:59:17.554Z,96002.95
2017-10-11T16:01:45.321Z,96005.45
2017-10-11T16:04:34.839Z,95995.89
2017-10-11T16:07:02.424Z,96004.98
2017-10-11T16:09:29.992Z,96004.14
2017-10-11T16:11:57.539Z,96010.73
2017-10-11T16:14:25.086Z,96013.41
2017-10-11T16:16:52.688Z,96010.87
2017-10-11T16:19:20.271Z,96013.27
2017-10-11T16:21:47.899Z,96018.06
2017-10-11T16:24:15.645Z,96022.50
2017-10-11T16:26:43.281Z,96027.53
2017-10-11T16:29:10.957Z,96026.84
2017-10-11T16:31:38.562Z,96040.44
2017-10-11T16:34:06.138Z,96040.98
2017-10-11T16:36:33.720Z,96045.11
2017-10-11T16:39:01.306Z,96039.97
2017-10-11T16:41:28.891Z,96053.37
2017-10-11T16:43:57.457Z,96056.86
2017-10-11T16:47:13.518Z,96058.44
2017-10-11T16:49:41.112Z,96062.67
2017-10-11T16:52:08.686Z,96063.33
2017-10-11T16:54:36.202Z,96071.56
2017-10-11T16:57:03.779Z,96071.53
2017-10-11T16:59:31.548Z,96074.97
2017-10-11T17:01:59.134Z,96074.38
2017-10-11T17:04:26.651Z,96078.30
2017-10-11T17:06:54.220Z,96080.41
2017-10-11T17:09:21.798Z,96081.59
2017-10-11T17:11:49.341Z,96078.45
2017-10-11T17:14:43.167Z,96079.72
2017-10-11T17:17:10.691Z,96075.59
2017-10-11T17:19:38.486Z,96076.05
2017-10-11T17:22:06.082Z,96079.30
2017-10-11T17:24:37.294Z,96081.38
2017-10-11T17:27:04.823Z,96077.67
2017-10-11T17:29:32.442Z,96082.96
2017-10-11T17:32:00.077Z,96086.72
2017-10-11T17:34:27.610Z,96083.81
2017-10-11T17:36:55.146Z,96088.19
2017-10-11T17:39:22.690Z,96088.67
2017-10-11T17:41:50.231Z,96092.48
2017-10-11T17:44:17.756Z,96095.92
2017-10-11T17:46:45.320Z,96100.47
2017-10-11T17:49:13.072Z,96103.98
2017-10-11T17:51:40.605Z,96097.57
2017-10-11T17:54:08.267Z,96101.13
2017-10-11T17:56:35.788Z,96108.98
2017-10-11T17:59:03.365Z,96104.06
2017-10-11T18:01:30.968Z,96101.77
2017-10-11T18:03:58.491Z,96108.08
2017-10-11T18:06:26.030Z,96108.11
2017-10-11T18:08:53.577Z,96116.13
2017-10-11T18:11:21.119Z,96111.67
2017-10-11T18:13:48.712Z,96110.72
2017-10-11T18:16:16.304Z,96119.48
2017-10-11T18:18:43.847Z,96117.88
2017-10-11T18:21:11.364Z,96118.39
2017-10-11T18:23:38.959Z,96117.31
2017-10-11T18:26:06.538Z,96130.63
2017-10-11T18:28:34.087Z,96128.45
2017-10-11T18:31:01.664Z,96127.80
2017-10-11T18:33:29.257Z,96130.06
2017-10-11T18:35:56.797Z,96133.20
2017-10-11T18:38:24.400Z,96133.42
2017-10-11T18:40:52.212Z,96130.95
2017-10-11T18:46:50.750Z,96133.72
2017-10-11T18:49:18.350Z,96135.16
2017-10-11T18:51:45.868Z,96136.93
2017-10-11T18:54:13.693Z,96138.13
2017-10-11T18:56:41.217Z,96138.52
2017-10-11T18:59:08.749Z,96142.52
2017-10-11T19:01:36.533Z,96137.56
2017-10-11T19:04:04.356Z,96147.09
2017-10-11T19:06:31.907Z,96150.19
2017-10-11T19:08:59.492Z,96143.16
2017-10-11T19:11:27.201Z,96149.69
2017-10-11T19:13:54.923Z,96144.72
2017-10-11T19:16:22.487Z,96149.70
2017-10-11T19:18:50.266Z,96150.45
2017-10-11T19:21:18.269Z,96153.45
2017-10-11T19:23:46.431Z,96152.09
2017-10-11T19:26:14.227Z,96163.62
2017-10-11T19:28:41.752Z,96157.48
2017-10-11T19:31:09.325Z,96158.84
2017-10-11T19:33:36.897Z,96155.51
2017-10-11T19:36:04.417Z,96156.44
2017-10-11T19:38:32.014Z,96154.59
2017-10-11T19:40:59.560Z,96145.85
2017-10-11T19:43:27.118Z,96152.43
2017-10-11T19:45:54.729Z,96155.00
2017-10-11T19:48:22.301Z,96153.66
2017-10-11T19:50:49.876Z,96155.83
2017-10-11T19:53:17.444Z,96159.88
2017-10-11T19:55:44.984Z,96153.11
2017-10-11T19:58:12.539Z,96155.41
2017-10-11T20:00:57.843Z,96151.57
2017-10-11T20:03:26.199Z,96156.78
2017-10-11T20:05:54.044Z,96153.50
2017-10-11T20:08:21.702Z,96152.40
2017-10-11T20:10:50.158Z,96156.36
2017-10-11T20:13:17.926Z,96156.88
2017-10-11T20:15:45.643Z,96161.67
2017-10-11T20:18:13.260Z,96164.53
2017-10-11T20:20:40.843Z,96163.70
2017-10-11T20:23:08.456Z,96168.36
2017-10-11T20:25:36.018Z,96165.32
2017-10-11T20:28:03.618Z,96166.00
2017-10-11T20:30:31.197Z,96161.95
2017-10-11T20:32:58.719Z,96164.69
2017-10-11T20:35:26.249Z,96170.65
2017-10-11T20:37:53.933Z,96163.32
2017-10-11T20:40:21.450Z,96160.37
2017-10-11T20:42:49.199Z,96163.23
2017-10-11T20:45:16.989Z,96157.03
2017-10-11T20:47:44.563Z,96158.64
2017-10-11T20:50:12.101Z,96156.75
2017-10-11T20:52:39.647Z,96159.08
2017-10-11T20:55:07.176Z,96160.22
2017-10-11T21:04:35.324Z,96171.91
2017-10-11T21:07:02.933Z,96169.31
2017-10-11T21:09:30.518Z,96175.25
2017-10-11T21:11:58.172Z,96179.05
2017-10-11T21:14:25.689Z,96175.09
2017-10-11T21:16:53.757Z,96176.20
2017-10-11T21:19:21.358Z,96182.76
2017-10-11T21:21:48.896Z,96179.03
2017-10-11T21:24:16.419Z,96178.84
2017-10-11T21:26:44.203Z,96182.98
2017-10-11T21:29:11.820Z,96184.25
2017-10-11T21:31:39.414Z,96183.86
2017-10-11T21:34:07.219Z,96183.75
2017-10-11T21:36:34.769Z,96186.18
2017-10-11T21:39:02.368Z,96179.88
2017-10-11T21:41:30.201Z,96183.01
2017-10-11T21:43:57.767Z,96181.27
2017-10-11T21:46:25.440Z,96182.55
2017-10-11T21:48:52.979Z,96187.18
2017-10-11T21:51:20.582Z,96181.23
2017-10-11T21:53:48.151Z,96184.58
2017-10-11T21:56:15.977Z,96186.55
2017-10-11T21:58:43.514Z,96191.14
2017-10-11T22:01:11.115Z,96192.11
2017-10-11T22:03:38.649Z,96189.89
2017-10-11T22:06:06.178Z,96185.42
2017-10-11T22:08:33.738Z,96195.55
2017-10-11T22:11:02.111Z,96191.45
2017-10-11T22:13:29.661Z,96190.37
2017-10-11T22:15:57.226Z,96189.48
2017-10-11T22:18:24.795Z,96186.66
2017-10-11T22:20:52.598Z,96182.43
2017-10-11T22:23:20.169Z,96188.64
2017-10-11T22:25:47.748Z,96193.25
2017-10-11T22:28:15.280Z,96191.94
2017-10-11T22:30:42.903Z,96191.41
2017-10-11T22:33:10.654Z,96192.38
2017-10-11T22:35:38.591Z,96191.59
2017-10-11T22:38:06.153Z,96192.94
2017-10-11T22:40:33.681Z,96193.02
2017-10-11T22:43:01.204Z,96200.66
2017-10-11T22:45:28.767Z,96194.45
2017-10-11T22:47:56.331Z,96202.95
2017-10-11T22:50:24.122Z,96191.17
2017-10-11T22:52:51.664Z,96200.68
2017-10-11T22:55:19.201Z,96197.52
2017-10-11T22:57:46.727Z,96198.45
2017-10-11T23:00:14.410Z,96199.22
2017-10-11T23:02:42.187Z,96197.27
2017-10-11T23:05:09.718Z,96195.44
2017-10-11T23:07:38.216Z,96201.83
2017-10-11T23:10:06.045Z,96195.27
2017-10-11T23:12:33.593Z,96192.05
2017-10-11T23:15:01.642Z,96197.72
2017-10-11T23:17:29.162Z,96192.58
2017-10-11T23:19:56.700Z,96193.80
2017-10-11T23:22:24.326Z,96188.40
2017-10-11T23:24:51.917Z,96187.77
2017-10-11T23:27:19.464Z,96182.52
2017-10-11T23:29:47.064Z,96186.12
2017-10-11T23:32:14.630Z,96188.44
2017-10-11T23:34:42.409Z,96188.28
2017-10-11T23:37:09.935Z,96185.02
2017-10-11T23:39:37.722Z,96183.42
2017-10-11T23:42:05.300Z,96183.27
2017-10-11T23:44:32.826Z,96181.30
2017-10-11T23:47:00.408Z,96185.52
2017-10-11T23:49:27.949Z,96177.08
2017-10-11T23:51:55.759Z,96185.73
2017-10-11T23:54:23.360Z,96182.90
2017-10-11T23:56:50.933Z,96183.27
2017-10-11T23:59:18.497Z,96179.48
